Overview Statistics Trail Chart Weather Telemetry Raw packets
 

This is the latest recevied weather packets stored in our database for station/object KD2FKI. If no packets are shown the sender has not sent any weather packets the latest 10 day(s).

<< 34 35 36 37 38 39 40 >>
Time Temp. Humidity Pressure Rain* Wind** Luminosity Snow
1787884519 21.11° C 92% - 0 mm - - -
1787883935 21.11° C 91% - 1.02 mm - - -
1787883333 21.11° C 91% - 11.94 mm - - -
1787882730 21.11° C 90% - 14.73 mm - - -
1787882128 21.11° C 89% - 14.73 mm - - -
1787881526 21.11° C 89% - 14.73 mm - - -
1787880924 21.11° C 90% - 14.73 mm - - -
1787880323 21.11° C 89% - 13.72 mm - - -
1787879721 22.78° C 88% - 2.79 mm - - -
1787879136 22.78° C 87% - 0 mm - - -
1787878536 23.33° C 84% - 0 mm - - -
1787877931 23.89° C 80% - 0 mm - - -
1787877328 25° C 77% - 0 mm - - -
1787876726 25° C 71% - 0 mm - - -
1787876124 25.56° C 69% - 0 mm - - -
1787875521 26.11° C 67% - 0 mm - - -
1787874920 26.67° C 65% - 0 mm - - -
1787874335 27.78° C 69% - 0 mm - - -
1787873736 27.78° C 69% - 0 mm - - -
1787873132 28.33° C 68% - 0 mm - - -
1787872534 28.33° C 67% - 0 mm - - -
1787871926 28.33° C 67% - 0 mm - - -
1787871323 28.33° C 66% - 0 mm - - -
1787870722 28.89° C 65% - 0 mm - - -
1787870119 28.89° C 64% - 0 mm - - -

* Rain latest hour (hover to see other rain measurements)
** Current wind speed in m/s (hover to see current wind gust speed)